sensor_id;sensor_type;location;lat;lon;timestamp;temperature;humidity
831;DHT22;397;50.564;7.272;2022-08-30T00:01:09;17.80;99.90
831;DHT22;397;50.564;7.272;2022-08-30T00:03:44;17.60;99.90
831;DHT22;397;50.564;7.272;2022-08-30T00:06:09;17.80;99.90
831;DHT22;397;50.564;7.272;2022-08-30T00:08:37;17.90;99.90
831;DHT22;397;50.564;7.272;2022-08-30T00:11:10;18.00;99.90
831;DHT22;397;50.564;7.272;2022-08-30T00:13:39;17.70;99.90
831;DHT22;397;50.564;7.272;2022-08-30T00:16:07;17.50;99.90
831;DHT22;397;50.564;7.272;2022-08-30T00:18:35;17.60;99.90
831;DHT22;397;50.564;7.272;2022-08-30T00:21:04;17.80;99.90
831;DHT22;397;50.564;7.272;2022-08-30T00:23:33;17.90;99.90
831;DHT22;397;50.564;7.272;2022-08-30T00:26:01;17.90;99.90
831;DHT22;397;50.564;7.272;2022-08-30T00:28:29;17.80;99.90
831;DHT22;397;50.564;7.272;2022-08-30T00:30:57;17.90;99.90
831;DHT22;397;50.564;7.272;2022-08-30T00:33:25;17.90;99.90
831;DHT22;397;50.564;7.272;2022-08-30T00:35:53;17.80;99.90
831;DHT22;397;50.564;7.272;2022-08-30T00:38:21;17.60;99.90
831;DHT22;397;50.564;7.272;2022-08-30T00:40:50;17.60;99.90
831;DHT22;397;50.564;7.272;2022-08-30T00:43:21;17.60;99.90
831;DHT22;397;50.564;7.272;2022-08-30T00:45:49;17.40;99.90
831;DHT22;397;50.564;7.272;2022-08-30T00:48:17;17.40;99.90
831;DHT22;397;50.564;7.272;2022-08-30T00:50:52;17.40;99.90
831;DHT22;397;50.564;7.272;2022-08-30T00:53:23;17.50;99.90
831;DHT22;397;50.564;7.272;2022-08-30T00:55:46;17.40;99.90
831;DHT22;397;50.564;7.272;2022-08-30T00:58:17;17.40;99.90
831;DHT22;397;50.564;7.272;2022-08-30T01:00:52;17.50;99.90
831;DHT22;397;50.564;7.272;2022-08-30T01:03:21;17.50;99.90
831;DHT22;397;50.564;7.272;2022-08-30T01:05:49;17.40;99.90
831;DHT22;397;50.564;7.272;2022-08-30T01:08:19;17.30;99.90
831;DHT22;397;50.564;7.272;2022-08-30T01:10:48;16.90;99.90
831;DHT22;397;50.564;7.272;2022-08-30T01:13:16;17.10;99.90
831;DHT22;397;50.564;7.272;2022-08-30T01:15:45;17.20;99.90
831;DHT22;397;50.564;7.272;2022-08-30T01:18:13;17.20;99.90
831;DHT22;397;50.564;7.272;2022-08-30T01:23:31;17.10;99.90
831;DHT22;397;50.564;7.272;2022-08-30T01:25:59;17.00;99.90
831;DHT22;397;50.564;7.272;2022-08-30T01:28:29;17.00;99.90
831;DHT22;397;50.564;7.272;2022-08-30T01:30:57;17.00;99.90
831;DHT22;397;50.564;7.272;2022-08-30T01:33:25;17.00;99.90
831;DHT22;397;50.564;7.272;2022-08-30T01:36:05;17.00;99.90
831;DHT22;397;50.564;7.272;2022-08-30T01:38:35;16.90;99.90
831;DHT22;397;50.564;7.272;2022-08-30T01:43:42;16.80;99.90
831;DHT22;397;50.564;7.272;2022-08-30T01:46:11;16.60;99.90
831;DHT22;397;50.564;7.272;2022-08-30T01:48:41;16.50;99.90
831;DHT22;397;50.564;7.272;2022-08-30T01:51:10;16.50;99.90
831;DHT22;397;50.564;7.272;2022-08-30T01:53:40;16.50;99.90
831;DHT22;397;50.564;7.272;2022-08-30T01:56:08;16.60;99.90
831;DHT22;397;50.564;7.272;2022-08-30T01:58:37;16.50;99.90
831;DHT22;397;50.564;7.272;2022-08-30T02:01:08;16.50;99.90
831;DHT22;397;50.564;7.272;2022-08-30T02:03:39;16.20;99.90
831;DHT22;397;50.564;7.272;2022-08-30T02:06:10;16.40;99.90
831;DHT22;397;50.564;7.272;2022-08-30T02:08:39;16.50;99.90
831;DHT22;397;50.564;7.272;2022-08-30T02:11:07;16.40;99.90
831;DHT22;397;50.564;7.272;2022-08-30T02:13:36;16.30;99.90
831;DHT22;397;50.564;7.272;2022-08-30T02:16:06;16.30;99.90
831;DHT22;397;50.564;7.272;2022-08-30T02:18:35;15.80;99.90
831;DHT22;397;50.564;7.272;2022-08-30T02:21:05;15.90;99.90
831;DHT22;397;50.564;7.272;2022-08-30T02:23:33;16.00;99.90
831;DHT22;397;50.564;7.272;2022-08-30T02:26:00;16.10;99.90
831;DHT22;397;50.564;7.272;2022-08-30T02:28:28;15.80;99.90
831;DHT22;397;50.564;7.272;2022-08-30T02:30:56;15.70;99.90
831;DHT22;397;50.564;7.272;2022-08-30T02:33:23;15.40;99.90
831;DHT22;397;50.564;7.272;2022-08-30T02:35:51;15.20;99.90
831;DHT22;397;50.564;7.272;2022-08-30T02:38:18;15.20;99.90
831;DHT22;397;50.564;7.272;2022-08-30T02:40:46;15.40;99.90
831;DHT22;397;50.564;7.272;2022-08-30T02:43:14;15.70;99.90
831;DHT22;397;50.564;7.272;2022-08-30T02:45:42;15.70;99.90
831;DHT22;397;50.564;7.272;2022-08-30T02:48:09;15.80;99.90
831;DHT22;397;50.564;7.272;2022-08-30T02:50:45;15.80;99.90
831;DHT22;397;50.564;7.272;2022-08-30T02:53:13;15.90;99.90
831;DHT22;397;50.564;7.272;2022-08-30T02:55:41;16.00;99.90
831;DHT22;397;50.564;7.272;2022-08-30T02:58:09;16.00;99.90
831;DHT22;397;50.564;7.272;2022-08-30T03:00:37;15.90;99.90
831;DHT22;397;50.564;7.272;2022-08-30T03:03:04;15.80;99.90
831;DHT22;397;50.564;7.272;2022-08-30T03:05:33;15.90;99.90
831;DHT22;397;50.564;7.272;2022-08-30T03:08:01;16.00;99.90
831;DHT22;397;50.564;7.272;2022-08-30T03:10:28;16.00;99.90
831;DHT22;397;50.564;7.272;2022-08-30T03:12:57;15.80;99.90
831;DHT22;397;50.564;7.272;2022-08-30T03:15:25;15.70;99.90
831;DHT22;397;50.564;7.272;2022-08-30T03:17:54;15.60;99.90
831;DHT22;397;50.564;7.272;2022-08-30T03:20:22;15.80;99.90
831;DHT22;397;50.564;7.272;2022-08-30T03:22:50;15.80;99.90
831;DHT22;397;50.564;7.272;2022-08-30T03:25:18;15.90;99.90
831;DHT22;397;50.564;7.272;2022-08-30T03:27:49;15.80;99.90
831;DHT22;397;50.564;7.272;2022-08-30T03:30:17;15.80;99.90
831;DHT22;397;50.564;7.272;2022-08-30T03:32:46;15.70;99.90
831;DHT22;397;50.564;7.272;2022-08-30T03:35:14;15.70;99.90
831;DHT22;397;50.564;7.272;2022-08-30T03:37:43;15.60;99.90
831;DHT22;397;50.564;7.272;2022-08-30T03:40:13;15.70;99.90
831;DHT22;397;50.564;7.272;2022-08-30T03:42:42;15.80;99.90
831;DHT22;397;50.564;7.272;2022-08-30T03:45:11;15.80;99.90
831;DHT22;397;50.564;7.272;2022-08-30T03:47:40;15.80;99.90
831;DHT22;397;50.564;7.272;2022-08-30T03:50:09;15.90;99.90
831;DHT22;397;50.564;7.272;2022-08-30T03:52:37;15.90;99.90
831;DHT22;397;50.564;7.272;2022-08-30T03:55:05;15.90;99.90
831;DHT22;397;50.564;7.272;2022-08-30T03:57:33;15.80;99.90
831;DHT22;397;50.564;7.272;2022-08-30T04:00:02;15.90;99.90
831;DHT22;397;50.564;7.272;2022-08-30T04:02:29;15.90;99.90
831;DHT22;397;50.564;7.272;2022-08-30T04:04:57;15.80;99.90
831;DHT22;397;50.564;7.272;2022-08-30T04:07:24;15.70;99.90
831;DHT22;397;50.564;7.272;2022-08-30T04:09:52;15.80;99.90
831;DHT22;397;50.564;7.272;2022-08-30T04:12:19;15.70;99.90
831;DHT22;397;50.564;7.272;2022-08-30T04:14:47;15.40;99.90
831;DHT22;397;50.564;7.272;2022-08-30T04:17:14;15.10;99.90
831;DHT22;397;50.564;7.272;2022-08-30T04:19:42;15.40;99.90
831;DHT22;397;50.564;7.272;2022-08-30T04:22:09;15.50;99.90
831;DHT22;397;50.564;7.272;2022-08-30T04:24:37;15.50;99.90
831;DHT22;397;50.564;7.272;2022-08-30T04:27:07;15.60;99.90
831;DHT22;397;50.564;7.272;2022-08-30T04:29:35;15.60;99.90
831;DHT22;397;50.564;7.272;2022-08-30T04:32:03;15.60;99.90
831;DHT22;397;50.564;7.272;2022-08-30T04:34:30;15.50;99.90
831;DHT22;397;50.564;7.272;2022-08-30T04:36:58;15.50;99.90
831;DHT22;397;50.564;7.272;2022-08-30T04:39:25;15.50;99.90
831;DHT22;397;50.564;7.272;2022-08-30T04:41:53;15.40;99.90
831;DHT22;397;50.564;7.272;2022-08-30T04:44:21;15.40;99.90
831;DHT22;397;50.564;7.272;2022-08-30T04:46:49;15.30;99.90
831;DHT22;397;50.564;7.272;2022-08-30T04:49:16;15.10;99.90
831;DHT22;397;50.564;7.272;2022-08-30T04:51:44;15.20;99.90
831;DHT22;397;50.564;7.272;2022-08-30T04:54:11;15.20;99.90
831;DHT22;397;50.564;7.272;2022-08-30T04:56:39;15.30;99.90
831;DHT22;397;50.564;7.272;2022-08-30T04:59:06;15.40;99.90
831;DHT22;397;50.564;7.272;2022-08-30T05:01:34;15.30;99.90
831;DHT22;397;50.564;7.272;2022-08-30T05:04:02;15.00;99.90
831;DHT22;397;50.564;7.272;2022-08-30T05:06:30;15.20;99.90
831;DHT22;397;50.564;7.272;2022-08-30T05:08:58;15.30;99.90
831;DHT22;397;50.564;7.272;2022-08-30T05:11:27;15.10;99.90
831;DHT22;397;50.564;7.272;2022-08-30T05:13:55;14.70;99.90
831;DHT22;397;50.564;7.272;2022-08-30T05:16:23;14.90;99.90
831;DHT22;397;50.564;7.272;2022-08-30T05:18:51;15.10;99.90
831;DHT22;397;50.564;7.272;2022-08-30T05:21:23;15.10;99.90
831;DHT22;397;50.564;7.272;2022-08-30T05:23:53;14.60;99.90
831;DHT22;397;50.564;7.272;2022-08-30T05:26:24;14.90;99.90
831;DHT22;397;50.564;7.272;2022-08-30T05:28:52;15.20;99.90
831;DHT22;397;50.564;7.272;2022-08-30T05:31:25;15.20;99.90
831;DHT22;397;50.564;7.272;2022-08-30T05:33:54;15.30;99.90
831;DHT22;397;50.564;7.272;2022-08-30T05:36:24;15.40;99.90
831;DHT22;397;50.564;7.272;2022-08-30T05:38:53;15.60;99.90
831;DHT22;397;50.564;7.272;2022-08-30T05:41:22;15.90;99.90
831;DHT22;397;50.564;7.272;2022-08-30T05:43:57;15.90;99.90
831;DHT22;397;50.564;7.272;2022-08-30T05:46:20;16.10;99.90
831;DHT22;397;50.564;7.272;2022-08-30T05:48:49;16.20;99.90
831;DHT22;397;50.564;7.272;2022-08-30T05:51:19;16.10;99.90
831;DHT22;397;50.564;7.272;2022-08-30T05:53:48;16.10;99.90
831;DHT22;397;50.564;7.272;2022-08-30T05:56:19;16.30;99.90
831;DHT22;397;50.564;7.272;2022-08-30T05:58:47;16.30;99.90
831;DHT22;397;50.564;7.272;2022-08-30T06:03:55;16.90;99.90
831;DHT22;397;50.564;7.272;2022-08-30T06:06:23;17.10;99.90
831;DHT22;397;50.564;7.272;2022-08-30T06:08:51;17.80;99.90
831;DHT22;397;50.564;7.272;2022-08-30T06:11:20;17.70;99.90
831;DHT22;397;50.564;7.272;2022-08-30T06:13:50;17.80;99.90
831;DHT22;397;50.564;7.272;2022-08-30T06:16:20;17.90;99.90
831;DHT22;397;50.564;7.272;2022-08-30T06:18:48;17.40;99.90
831;DHT22;397;50.564;7.272;2022-08-30T06:21:35;17.40;99.90
831;DHT22;397;50.564;7.272;2022-08-30T06:23:49;17.40;99.90
831;DHT22;397;50.564;7.272;2022-08-30T06:26:17;17.60;99.90
831;DHT22;397;50.564;7.272;2022-08-30T06:28:45;17.80;99.90
831;DHT22;397;50.564;7.272;2022-08-30T06:31:15;17.60;99.90
831;DHT22;397;50.564;7.272;2022-08-30T06:33:43;17.70;99.90
831;DHT22;397;50.564;7.272;2022-08-30T06:36:13;17.80;99.90
831;DHT22;397;50.564;7.272;2022-08-30T06:38:41;17.90;99.90
831;DHT22;397;50.564;7.272;2022-08-30T06:41:16;17.80;99.90
831;DHT22;397;50.564;7.272;2022-08-30T06:43:45;18.00;99.90
831;DHT22;397;50.564;7.272;2022-08-30T06:46:16;18.20;99.90
831;DHT22;397;50.564;7.272;2022-08-30T06:48:43;18.20;99.90
831;DHT22;397;50.564;7.272;2022-08-30T06:51:10;18.30;99.90
831;DHT22;397;50.564;7.272;2022-08-30T06:53:38;18.40;99.90
831;DHT22;397;50.564;7.272;2022-08-30T06:56:08;18.20;99.90
831;DHT22;397;50.564;7.272;2022-08-30T06:58:37;18.10;99.90
831;DHT22;397;50.564;7.272;2022-08-30T07:01:10;18.20;99.90
831;DHT22;397;50.564;7.272;2022-08-30T07:03:36;18.60;99.90
831;DHT22;397;50.564;7.272;2022-08-30T07:06:05;18.60;99.90
831;DHT22;397;50.564;7.272;2022-08-30T07:08:32;18.90;99.90
831;DHT22;397;50.564;7.272;2022-08-30T07:11:00;18.50;99.90
831;DHT22;397;50.564;7.272;2022-08-30T07:13:27;18.70;99.90
831;DHT22;397;50.564;7.272;2022-08-30T07:15:56;18.50;99.90
831;DHT22;397;50.564;7.272;2022-08-30T07:18:23;18.60;99.90
831;DHT22;397;50.564;7.272;2022-08-30T07:21:12;18.40;99.90
831;DHT22;397;50.564;7.272;2022-08-30T07:23:41;19.00;99.90
831;DHT22;397;50.564;7.272;2022-08-30T07:26:12;19.10;99.90
831;DHT22;397;50.564;7.272;2022-08-30T07:28:41;19.20;99.90
831;DHT22;397;50.564;7.272;2022-08-30T07:31:11;19.20;99.90
831;DHT22;397;50.564;7.272;2022-08-30T07:33:39;19.30;99.90
831;DHT22;397;50.564;7.272;2022-08-30T07:36:07;19.30;99.90
831;DHT22;397;50.564;7.272;2022-08-30T07:38:35;19.40;99.90
831;DHT22;397;50.564;7.272;2022-08-30T07:41:02;19.50;99.90
831;DHT22;397;50.564;7.272;2022-08-30T07:43:32;19.80;99.90
831;DHT22;397;50.564;7.272;2022-08-30T07:46:02;19.90;99.90
831;DHT22;397;50.564;7.272;2022-08-30T07:48:30;20.00;99.90
831;DHT22;397;50.564;7.272;2022-08-30T07:50:58;20.10;99.90
831;DHT22;397;50.564;7.272;2022-08-30T07:53:26;20.00;99.90
831;DHT22;397;50.564;7.272;2022-08-30T07:55:53;19.90;99.90
831;DHT22;397;50.564;7.272;2022-08-30T07:58:21;19.90;99.90
831;DHT22;397;50.564;7.272;2022-08-30T08:00:49;20.20;99.90
831;DHT22;397;50.564;7.272;2022-08-30T08:03:16;20.30;99.90
831;DHT22;397;50.564;7.272;2022-08-30T08:05:45;20.50;99.90
831;DHT22;397;50.564;7.272;2022-08-30T08:08:13;20.60;99.90
831;DHT22;397;50.564;7.272;2022-08-30T08:10:41;20.90;99.90
831;DHT22;397;50.564;7.272;2022-08-30T08:13:09;21.00;99.90
831;DHT22;397;50.564;7.272;2022-08-30T08:15:37;21.10;99.90
831;DHT22;397;50.564;7.272;2022-08-30T08:18:05;21.30;99.90
831;DHT22;397;50.564;7.272;2022-08-30T08:20:33;21.10;99.90
831;DHT22;397;50.564;7.272;2022-08-30T08:23:01;21.10;99.90
831;DHT22;397;50.564;7.272;2022-08-30T08:25:29;21.40;99.90
831;DHT22;397;50.564;7.272;2022-08-30T08:27:57;21.50;99.90
831;DHT22;397;50.564;7.272;2022-08-30T08:30:24;21.30;99.90
831;DHT22;397;50.564;7.272;2022-08-30T08:32:52;21.40;99.90
831;DHT22;397;50.564;7.272;2022-08-30T08:35:19;21.40;99.90
831;DHT22;397;50.564;7.272;2022-08-30T08:37:47;21.60;99.90
831;DHT22;397;50.564;7.272;2022-08-30T08:40:17;21.80;99.90
831;DHT22;397;50.564;7.272;2022-08-30T08:45:43;22.20;99.90
831;DHT22;397;50.564;7.272;2022-08-30T08:50:53;22.50;99.90
831;DHT22;397;50.564;7.272;2022-08-30T08:53:39;22.70;99.90
831;DHT22;397;50.564;7.272;2022-08-30T08:56:11;22.70;99.90
831;DHT22;397;50.564;7.272;2022-08-30T08:58:47;22.90;99.90
831;DHT22;397;50.564;7.272;2022-08-30T09:01:13;22.90;99.90
831;DHT22;397;50.564;7.272;2022-08-30T09:03:42;22.80;99.90
831;DHT22;397;50.564;7.272;2022-08-30T09:08:58;22.90;99.90
831;DHT22;397;50.564;7.272;2022-08-30T09:11:28;23.00;99.90
831;DHT22;397;50.564;7.272;2022-08-30T09:13:58;22.90;99.90
831;DHT22;397;50.564;7.272;2022-08-30T09:16:50;23.00;99.90
831;DHT22;397;50.564;7.272;2022-08-30T09:19:28;22.90;99.90
831;DHT22;397;50.564;7.272;2022-08-30T09:21:59;23.00;99.90
831;DHT22;397;50.564;7.272;2022-08-30T09:24:38;23.10;99.90
831;DHT22;397;50.564;7.272;2022-08-30T09:27:27;23.20;99.90
831;DHT22;397;50.564;7.272;2022-08-30T09:32:40;23.40;99.90
831;DHT22;397;50.564;7.272;2022-08-30T09:35:19;23.50;99.90
831;DHT22;397;50.564;7.272;2022-08-30T09:40:21;23.80;99.90
831;DHT22;397;50.564;7.272;2022-08-30T09:45:37;24.00;99.90
831;DHT22;397;50.564;7.272;2022-08-30T09:48:28;23.90;99.90
831;DHT22;397;50.564;7.272;2022-08-30T09:51:04;24.00;99.90
831;DHT22;397;50.564;7.272;2022-08-30T09:53:31;24.10;99.90
831;DHT22;397;50.564;7.272;2022-08-30T10:01:49;24.20;99.90
831;DHT22;397;50.564;7.272;2022-08-30T10:04:36;24.30;99.90
831;DHT22;397;50.564;7.272;2022-08-30T10:07:45;24.30;99.90
831;DHT22;397;50.564;7.272;2022-08-30T10:15:49;24.80;99.90
831;DHT22;397;50.564;7.272;2022-08-30T10:18:27;24.80;99.90
831;DHT22;397;50.564;7.272;2022-08-30T10:21:12;24.80;99.90
831;DHT22;397;50.564;7.272;2022-08-30T10:23:44;24.90;99.90
831;DHT22;397;50.564;7.272;2022-08-30T10:26:22;25.10;99.90
831;DHT22;397;50.564;7.272;2022-08-30T10:28:49;25.10;99.90
831;DHT22;397;50.564;7.272;2022-08-30T10:31:34;25.10;99.90
831;DHT22;397;50.564;7.272;2022-08-30T10:34:01;25.10;99.90
831;DHT22;397;50.564;7.272;2022-08-30T10:36:45;25.10;99.90
831;DHT22;397;50.564;7.272;2022-08-30T10:39:12;25.20;99.90
831;DHT22;397;50.564;7.272;2022-08-30T10:41:47;25.30;99.90
831;DHT22;397;50.564;7.272;2022-08-30T10:44:18;25.30;99.90
831;DHT22;397;50.564;7.272;2022-08-30T10:49:48;25.40;99.90
831;DHT22;397;50.564;7.272;2022-08-30T10:55:06;25.80;99.90
831;DHT22;397;50.564;7.272;2022-08-30T10:57:32;25.70;99.90
831;DHT22;397;50.564;7.272;2022-08-30T11:00:09;25.90;99.90
831;DHT22;397;50.564;7.272;2022-08-30T11:05:14;25.80;98.10
831;DHT22;397;50.564;7.272;2022-08-30T11:07:55;25.90;98.30
831;DHT22;397;50.564;7.272;2022-08-30T11:13:25;26.00;99.60
831;DHT22;397;50.564;7.272;2022-08-30T11:16:05;26.20;98.10
831;DHT22;397;50.564;7.272;2022-08-30T11:18:48;26.30;97.30
831;DHT22;397;50.564;7.272;2022-08-30T11:21:19;26.50;96.40
831;DHT22;397;50.564;7.272;2022-08-30T11:29:33;26.80;94.80
831;DHT22;397;50.564;7.272;2022-08-30T11:37:36;27.00;94.00
831;DHT22;397;50.564;7.272;2022-08-30T11:40:08;27.00;93.50
831;DHT22;397;50.564;7.272;2022-08-30T11:42:38;27.00;92.70
831;DHT22;397;50.564;7.272;2022-08-30T11:47:59;26.90;91.60
831;DHT22;397;50.564;7.272;2022-08-30T11:53:25;27.20;92.30
831;DHT22;397;50.564;7.272;2022-08-30T11:58:39;27.40;91.40
831;DHT22;397;50.564;7.272;2022-08-30T12:01:18;27.40;90.90
831;DHT22;397;50.564;7.272;2022-08-30T12:09:11;27.40;90.30
831;DHT22;397;50.564;7.272;2022-08-30T12:15:00;27.40;90.10
831;DHT22;397;50.564;7.272;2022-08-30T12:20:05;27.50;90.50
831;DHT22;397;50.564;7.272;2022-08-30T12:22:34;27.40;90.50
831;DHT22;397;50.564;7.272;2022-08-30T12:25:12;27.40;89.80
831;DHT22;397;50.564;7.272;2022-08-30T12:27:33;27.70;89.10
831;DHT22;397;50.564;7.272;2022-08-30T12:30:05;27.60;87.50
831;DHT22;397;50.564;7.272;2022-08-30T12:32:32;27.60;86.70
831;DHT22;397;50.564;7.272;2022-08-30T12:35:03;27.70;86.80
831;DHT22;397;50.564;7.272;2022-08-30T12:37:39;27.90;85.90
831;DHT22;397;50.564;7.272;2022-08-30T12:40:13;27.90;86.40
831;DHT22;397;50.564;7.272;2022-08-30T12:42:57;28.00;86.60
831;DHT22;397;50.564;7.272;2022-08-30T12:45:28;27.90;88.10
831;DHT22;397;50.564;7.272;2022-08-30T12:48:08;28.00;86.30
831;DHT22;397;50.564;7.272;2022-08-30T12:50:57;27.80;87.90
831;DHT22;397;50.564;7.272;2022-08-30T12:53:41;27.80;88.10
831;DHT22;397;50.564;7.272;2022-08-30T12:56:14;27.90;88.20
831;DHT22;397;50.564;7.272;2022-08-30T12:58:41;27.90;89.20
831;DHT22;397;50.564;7.272;2022-08-30T13:01:26;27.70;87.20
831;DHT22;397;50.564;7.272;2022-08-30T13:04:09;27.50;87.50
831;DHT22;397;50.564;7.272;2022-08-30T13:06:53;27.50;87.80
831;DHT22;397;50.564;7.272;2022-08-30T13:09:35;27.60;86.40
831;DHT22;397;50.564;7.272;2022-08-30T13:12:05;27.50;90.30
831;DHT22;397;50.564;7.272;2022-08-30T13:14:36;27.50;89.40
831;DHT22;397;50.564;7.272;2022-08-30T13:17:09;27.60;85.80
831;DHT22;397;50.564;7.272;2022-08-30T13:19:42;27.60;85.70
831;DHT22;397;50.564;7.272;2022-08-30T13:24:56;27.60;85.60
831;DHT22;397;50.564;7.272;2022-08-30T13:27:25;27.60;86.10
831;DHT22;397;50.564;7.272;2022-08-30T13:29:53;27.50;85.60
831;DHT22;397;50.564;7.272;2022-08-30T13:32:22;27.60;86.90
831;DHT22;397;50.564;7.272;2022-08-30T13:34:50;27.60;86.80
831;DHT22;397;50.564;7.272;2022-08-30T13:37:22;27.60;85.50
831;DHT22;397;50.564;7.272;2022-08-30T13:39:51;27.50;86.40
831;DHT22;397;50.564;7.272;2022-08-30T13:42:18;27.50;85.60
831;DHT22;397;50.564;7.272;2022-08-30T13:44:46;27.50;85.10
831;DHT22;397;50.564;7.272;2022-08-30T13:47:14;27.50;86.50
831;DHT22;397;50.564;7.272;2022-08-30T13:49:42;27.60;85.90
831;DHT22;397;50.564;7.272;2022-08-30T13:52:17;27.60;84.40
831;DHT22;397;50.564;7.272;2022-08-30T13:54:44;27.60;84.10
831;DHT22;397;50.564;7.272;2022-08-30T13:57:15;27.60;83.90
831;DHT22;397;50.564;7.272;2022-08-30T13:59:40;27.70;83.80
831;DHT22;397;50.564;7.272;2022-08-30T14:02:08;27.70;83.70
831;DHT22;397;50.564;7.272;2022-08-30T14:04:35;27.80;83.70
831;DHT22;397;50.564;7.272;2022-08-30T14:07:04;27.80;84.70
831;DHT22;397;50.564;7.272;2022-08-30T14:09:31;28.00;83.40
831;DHT22;397;50.564;7.272;2022-08-30T14:11:59;27.90;83.90
831;DHT22;397;50.564;7.272;2022-08-30T14:14:27;27.90;83.30
831;DHT22;397;50.564;7.272;2022-08-30T14:16:54;27.80;83.60
831;DHT22;397;50.564;7.272;2022-08-30T14:19:22;27.80;83.30
831;DHT22;397;50.564;7.272;2022-08-30T14:21:49;27.80;82.60
831;DHT22;397;50.564;7.272;2022-08-30T14:24:17;27.80;83.00
831;DHT22;397;50.564;7.272;2022-08-30T14:26:47;27.90;82.80
831;DHT22;397;50.564;7.272;2022-08-30T14:29:18;27.90;83.30
831;DHT22;397;50.564;7.272;2022-08-30T14:31:47;27.90;81.70
831;DHT22;397;50.564;7.272;2022-08-30T14:34:17;27.90;81.70
831;DHT22;397;50.564;7.272;2022-08-30T14:36:45;27.80;81.60
831;DHT22;397;50.564;7.272;2022-08-30T14:39:15;27.80;81.30
831;DHT22;397;50.564;7.272;2022-08-30T14:41:46;27.80;81.20
831;DHT22;397;50.564;7.272;2022-08-30T14:44:15;27.80;83.40
831;DHT22;397;50.564;7.272;2022-08-30T14:46:43;27.80;82.40
831;DHT22;397;50.564;7.272;2022-08-30T14:49:13;27.80;83.40
831;DHT22;397;50.564;7.272;2022-08-30T14:51:41;27.80;83.00
831;DHT22;397;50.564;7.272;2022-08-30T14:54:09;27.90;83.50
831;DHT22;397;50.564;7.272;2022-08-30T14:56:38;28.10;82.40
831;DHT22;397;50.564;7.272;2022-08-30T14:59:06;28.20;81.70
831;DHT22;397;50.564;7.272;2022-08-30T15:01:35;28.10;82.60
831;DHT22;397;50.564;7.272;2022-08-30T15:04:05;28.20;80.20
831;DHT22;397;50.564;7.272;2022-08-30T15:06:37;28.00;81.10
831;DHT22;397;50.564;7.272;2022-08-30T15:09:06;27.90;81.30
831;DHT22;397;50.564;7.272;2022-08-30T15:11:34;27.90;80.20
831;DHT22;397;50.564;7.272;2022-08-30T15:14:03;27.90;82.80
831;DHT22;397;50.564;7.272;2022-08-30T15:16:34;28.00;81.30
831;DHT22;397;50.564;7.272;2022-08-30T15:19:03;28.00;86.30
831;DHT22;397;50.564;7.272;2022-08-30T15:21:34;28.10;80.40
831;DHT22;397;50.564;7.272;2022-08-30T15:24:04;28.00;80.00
831;DHT22;397;50.564;7.272;2022-08-30T15:26:32;27.80;81.30
831;DHT22;397;50.564;7.272;2022-08-30T15:29:01;27.70;83.90
831;DHT22;397;50.564;7.272;2022-08-30T15:31:29;27.60;80.30
831;DHT22;397;50.564;7.272;2022-08-30T15:33:57;27.60;82.70
831;DHT22;397;50.564;7.272;2022-08-30T15:36:27;27.50;80.40
831;DHT22;397;50.564;7.272;2022-08-30T15:38:55;27.50;80.60
831;DHT22;397;50.564;7.272;2022-08-30T15:41:25;27.50;80.10
831;DHT22;397;50.564;7.272;2022-08-30T15:43:55;27.50;80.20
831;DHT22;397;50.564;7.272;2022-08-30T15:46:26;27.40;79.60
831;DHT22;397;50.564;7.272;2022-08-30T15:49:03;27.40;79.20
831;DHT22;397;50.564;7.272;2022-08-30T15:51:33;27.40;82.50
831;DHT22;397;50.564;7.272;2022-08-30T15:54:02;27.50;82.20
831;DHT22;397;50.564;7.272;2022-08-30T15:56:31;27.50;80.90
831;DHT22;397;50.564;7.272;2022-08-30T15:58:59;27.50;79.10
831;DHT22;397;50.564;7.272;2022-08-30T16:01:26;27.50;80.20
831;DHT22;397;50.564;7.272;2022-08-30T16:03:54;27.50;82.00
831;DHT22;397;50.564;7.272;2022-08-30T16:06:24;27.50;81.00
831;DHT22;397;50.564;7.272;2022-08-30T16:08:52;27.50;80.40
831;DHT22;397;50.564;7.272;2022-08-30T16:11:20;27.50;80.20
831;DHT22;397;50.564;7.272;2022-08-30T16:13:52;27.60;79.30
831;DHT22;397;50.564;7.272;2022-08-30T16:16:21;27.50;77.30
831;DHT22;397;50.564;7.272;2022-08-30T16:18:50;27.50;77.00
831;DHT22;397;50.564;7.272;2022-08-30T16:21:26;27.50;78.80
831;DHT22;397;50.564;7.272;2022-08-30T16:23:57;27.50;77.40
831;DHT22;397;50.564;7.272;2022-08-30T16:26:26;27.50;77.60
831;DHT22;397;50.564;7.272;2022-08-30T16:28:54;27.50;76.40
831;DHT22;397;50.564;7.272;2022-08-30T16:31:23;27.50;75.80
831;DHT22;397;50.564;7.272;2022-08-30T16:33:51;27.50;76.90
831;DHT22;397;50.564;7.272;2022-08-30T16:36:20;27.50;78.30
831;DHT22;397;50.564;7.272;2022-08-30T16:38:48;27.40;80.00
831;DHT22;397;50.564;7.272;2022-08-30T16:41:17;27.30;80.40
831;DHT22;397;50.564;7.272;2022-08-30T16:43:45;27.30;79.80
831;DHT22;397;50.564;7.272;2022-08-30T16:46:14;27.30;79.80
831;DHT22;397;50.564;7.272;2022-08-30T16:48:43;27.30;80.40
831;DHT22;397;50.564;7.272;2022-08-30T16:51:15;27.20;81.90
831;DHT22;397;50.564;7.272;2022-08-30T16:53:43;27.20;80.00
831;DHT22;397;50.564;7.272;2022-08-30T16:56:18;27.10;81.80
831;DHT22;397;50.564;7.272;2022-08-30T16:58:43;27.00;82.30
831;DHT22;397;50.564;7.272;2022-08-30T17:01:11;27.10;80.60
831;DHT22;397;50.564;7.272;2022-08-30T17:03:39;27.00;81.30
831;DHT22;397;50.564;7.272;2022-08-30T17:06:08;27.00;80.40
831;DHT22;397;50.564;7.272;2022-08-30T17:08:35;27.00;80.40
831;DHT22;397;50.564;7.272;2022-08-30T17:11:03;27.00;82.10
831;DHT22;397;50.564;7.272;2022-08-30T17:13:31;26.90;82.40
831;DHT22;397;50.564;7.272;2022-08-30T17:15:58;26.90;81.80
831;DHT22;397;50.564;7.272;2022-08-30T17:18:26;26.90;80.80
831;DHT22;397;50.564;7.272;2022-08-30T17:20:53;26.90;80.70
831;DHT22;397;50.564;7.272;2022-08-30T17:23:21;26.80;80.70
831;DHT22;397;50.564;7.272;2022-08-30T17:25:49;26.80;80.50
831;DHT22;397;50.564;7.272;2022-08-30T17:28:16;26.80;80.60
831;DHT22;397;50.564;7.272;2022-08-30T17:30:44;26.80;80.30
831;DHT22;397;50.564;7.272;2022-08-30T17:33:11;26.70;81.60
831;DHT22;397;50.564;7.272;2022-08-30T17:35:40;26.60;81.40
831;DHT22;397;50.564;7.272;2022-08-30T17:38:08;26.60;81.30
831;DHT22;397;50.564;7.272;2022-08-30T17:40:35;26.50;81.90
831;DHT22;397;50.564;7.272;2022-08-30T17:43:03;26.40;83.60
831;DHT22;397;50.564;7.272;2022-08-30T17:45:30;26.40;83.30
831;DHT22;397;50.564;7.272;2022-08-30T17:48:00;26.30;84.10
831;DHT22;397;50.564;7.272;2022-08-30T17:50:27;26.20;84.30
831;DHT22;397;50.564;7.272;2022-08-30T17:52:56;26.10;85.50
831;DHT22;397;50.564;7.272;2022-08-30T17:55:23;26.00;85.50
831;DHT22;397;50.564;7.272;2022-08-30T17:57:51;26.00;85.30
831;DHT22;397;50.564;7.272;2022-08-30T18:00:19;25.90;85.50
831;DHT22;397;50.564;7.272;2022-08-30T18:02:46;25.80;87.30
831;DHT22;397;50.564;7.272;2022-08-30T18:05:14;25.80;88.10
831;DHT22;397;50.564;7.272;2022-08-30T18:07:41;25.70;91.60
831;DHT22;397;50.564;7.272;2022-08-30T18:10:09;25.70;89.40
831;DHT22;397;50.564;7.272;2022-08-30T18:12:36;25.60;90.30